createdAt,value
2023-03-12T00:00:12.021Z,1.50
2023-03-12T00:02:39.822Z,2.70
2023-03-12T00:05:08.132Z,2.47
2023-03-12T00:07:36.703Z,3.73
2023-03-12T00:10:07.264Z,2.30
2023-03-12T00:12:35.045Z,1.77
2023-03-12T00:15:02.988Z,3.33
2023-03-12T00:17:30.572Z,3.47
2023-03-12T00:19:58.488Z,2.23
2023-03-12T00:22:26.359Z,2.50
2023-03-12T00:24:55.839Z,1.60
2023-03-12T00:27:24.670Z,1.20
2023-03-12T00:29:52.254Z,1.80
2023-03-12T00:32:20.707Z,2.27
2023-03-12T00:34:52.536Z,2.37
2023-03-12T00:37:20.764Z,1.05
2023-03-12T00:39:48.626Z,1.93
2023-03-12T00:42:16.747Z,1.47
2023-03-12T00:44:44.669Z,1.90
2023-03-12T00:47:13.730Z,1.60
2023-03-12T00:49:41.388Z,2.27
2023-03-12T00:52:09.271Z,3.27
2023-03-12T00:54:36.879Z,1.57
2023-03-12T00:57:04.971Z,2.23
2023-03-12T00:59:34.260Z,2.00
2023-03-12T01:02:01.946Z,0.60
2023-03-12T01:04:29.662Z,1.93
2023-03-12T01:06:57.309Z,2.67
2023-03-12T01:09:24.889Z,2.10
2023-03-12T01:11:52.538Z,1.80
2023-03-12T01:14:20.171Z,3.20
2023-03-12T01:16:49.846Z,3.60
2023-03-12T01:19:19.399Z,3.83
2023-03-12T01:21:47.116Z,1.43
2023-03-12T01:24:14.800Z,1.43
2023-03-12T01:26:42.802Z,3.33
2023-03-12T01:29:10.475Z,1.43
2023-03-12T01:31:38.591Z,1.73
2023-03-12T01:34:06.205Z,2.47
2023-03-12T01:36:33.820Z,1.50
2023-03-12T01:39:01.927Z,1.33
2023-03-12T01:41:32.634Z,1.13
2023-03-12T01:44:03.807Z,2.60
2023-03-12T01:46:38.632Z,1.52
2023-03-12T01:49:31.733Z,1.80
2023-03-12T01:52:36.935Z,2.60
2023-03-12T01:55:10.303Z,2.03
2023-03-12T01:57:46.340Z,1.33
2023-03-12T02:00:26.549Z,1.90
2023-03-12T02:03:00.956Z,2.00
2023-03-12T02:05:43.513Z,2.63
2023-03-12T02:08:13.502Z,1.27
2023-03-12T02:10:41.324Z,2.00
2023-03-12T02:13:11.328Z,1.70
2023-03-12T02:15:44.568Z,2.13
2023-03-12T02:18:16.620Z,3.77
2023-03-12T02:21:02.593Z,1.77
2023-03-12T02:23:55.026Z,3.57
2023-03-12T02:26:24.642Z,1.30
2023-03-12T02:28:54.569Z,1.97
2023-03-12T02:31:26.718Z,2.07
2023-03-12T02:33:56.248Z,1.17
2023-03-12T02:36:23.840Z,1.47
2023-03-12T02:38:54.061Z,2.23
2023-03-12T02:41:31.948Z,3.03
2023-03-12T02:44:02.642Z,2.57
2023-03-12T02:46:35.387Z,2.93
2023-03-12T02:49:03.966Z,2.10
2023-03-12T02:51:31.889Z,2.37
2023-03-12T02:53:59.498Z,1.90
2023-03-12T02:56:29.053Z,4.10
2023-03-12T02:58:56.866Z,2.73
2023-03-12T03:01:25.954Z,4.40
2023-03-12T03:03:54.867Z,2.17
2023-03-12T03:06:23.636Z,2.27
2023-03-12T03:08:51.479Z,5.47
2023-03-12T03:11:24.390Z,2.80
2023-03-12T03:13:54.927Z,3.23
2023-03-12T03:16:24.752Z,4.33
2023-03-12T03:18:52.628Z,2.23
2023-03-12T03:21:20.520Z,4.17
2023-03-12T03:23:50.241Z,2.50
2023-03-12T03:26:21.853Z,2.67
2023-03-12T03:28:50.147Z,2.63
2023-03-12T03:31:18.734Z,1.53
2023-03-12T03:33:47.092Z,3.90
2023-03-12T03:36:15.201Z,3.07
2023-03-12T03:39:05.032Z,2.60
2023-03-12T03:41:35.417Z,3.30
2023-03-12T03:44:05.374Z,3.13
2023-03-12T03:46:37.734Z,5.07
2023-03-12T03:49:08.443Z,2.90
2023-03-12T03:51:38.229Z,5.17
2023-03-12T03:54:11.000Z,3.57
2023-03-12T03:56:41.323Z,1.97
2023-03-12T03:59:10.258Z,4.93
2023-03-12T04:01:40.020Z,1.70
2023-03-12T04:04:07.810Z,2.57
2023-03-12T04:06:36.924Z,2.73
2023-03-12T04:09:05.410Z,2.63
2023-03-12T04:11:34.814Z,2.67
2023-03-12T04:14:04.612Z,3.97
2023-03-12T04:16:34.471Z,2.97
2023-03-12T04:19:03.363Z,3.43
2023-03-12T04:21:31.094Z,2.97
2023-03-12T04:23:58.835Z,3.10
2023-03-12T04:26:30.624Z,3.33
2023-03-12T04:28:59.973Z,4.77
2023-03-12T04:31:27.934Z,2.93
2023-03-12T04:33:55.787Z,5.03
2023-03-12T04:36:25.740Z,4.90
2023-03-12T04:38:56.659Z,3.63
2023-03-12T04:41:29.250Z,4.77
2023-03-12T04:44:03.862Z,6.10
2023-03-12T04:46:31.986Z,6.47
2023-03-12T04:49:02.592Z,3.93
2023-03-12T04:51:32.419Z,4.93
2023-03-12T04:54:02.226Z,3.93
2023-03-12T04:56:30.371Z,6.27
2023-03-12T04:58:58.550Z,5.97
2023-03-12T05:01:35.031Z,4.43
2023-03-12T05:04:07.720Z,5.03
2023-03-12T05:06:35.864Z,5.27
2023-03-12T05:09:04.099Z,6.10
2023-03-12T05:11:31.957Z,25.87
2023-03-12T05:13:59.618Z,17.87
2023-03-12T05:16:28.014Z,6.33
2023-03-12T05:18:56.010Z,6.00
2023-03-12T05:21:25.483Z,7.03
2023-03-12T05:23:55.723Z,10.70
2023-03-12T05:26:31.685Z,4.80
2023-03-12T05:29:07.137Z,5.70
2023-03-12T05:31:35.590Z,5.37
2023-03-12T05:34:05.621Z,3.90
2023-03-12T05:36:36.918Z,3.23
2023-03-12T05:39:05.400Z,10.00
2023-03-12T05:41:34.651Z,9.97
2023-03-12T05:44:13.741Z,40.53
2023-03-12T05:46:44.082Z,15.17
2023-03-12T05:49:12.103Z,9.97
2023-03-12T05:51:39.748Z,7.27
2023-03-12T05:54:09.332Z,4.23
2023-03-12T05:56:38.273Z,4.77
2023-03-12T05:59:07.284Z,4.23
2023-03-12T06:01:35.111Z,5.63
2023-03-12T06:04:05.235Z,3.53
2023-03-12T06:06:35.473Z,22.53
2023-03-12T06:09:05.118Z,11.87
2023-03-12T06:11:34.719Z,8.00
2023-03-12T06:14:03.349Z,7.03
2023-03-12T06:16:31.883Z,9.47
2023-03-12T06:19:01.999Z,10.07
2023-03-12T06:21:32.428Z,13.53
2023-03-12T06:24:02.023Z,6.63
2023-03-12T06:26:41.411Z,7.20
2023-03-12T06:29:09.127Z,4.83
2023-03-12T06:31:38.847Z,4.07
2023-03-12T06:34:06.642Z,5.40
2023-03-12T06:36:34.691Z,5.70
2023-03-12T06:39:06.228Z,6.45
2023-03-12T06:41:34.286Z,3.67
2023-03-12T06:44:05.990Z,4.10
2023-03-12T06:46:33.991Z,4.68
2023-03-12T06:49:01.653Z,3.23
2023-03-12T06:51:29.665Z,3.90
2023-03-12T06:53:57.381Z,6.78
2023-03-12T06:56:24.971Z,11.52
2023-03-12T06:58:52.743Z,8.52
2023-03-12T07:01:20.442Z,3.22
2023-03-12T07:03:48.103Z,3.08
2023-03-12T07:06:18.860Z,6.40
2023-03-12T07:08:46.676Z,5.00
2023-03-12T07:11:14.775Z,4.75
2023-03-12T07:13:42.713Z,3.20
2023-03-12T07:16:11.032Z,4.00
2023-03-12T07:18:38.750Z,2.40
2023-03-12T07:21:06.647Z,3.17
2023-03-12T07:23:34.535Z,4.65
2023-03-12T07:26:05.567Z,5.30
2023-03-12T07:28:33.607Z,3.67
2023-03-12T07:31:05.053Z,4.43
2023-03-12T07:33:33.104Z,3.60
2023-03-12T07:36:01.414Z,3.25
2023-03-12T07:38:29.485Z,2.13
2023-03-12T07:40:58.427Z,2.72
2023-03-12T07:43:26.519Z,3.47
2023-03-12T07:45:56.026Z,6.30
2023-03-12T07:48:23.892Z,3.20
2023-03-12T07:50:52.190Z,4.35
2023-03-12T07:53:19.899Z,2.40
2023-03-12T07:55:48.281Z,2.08
2023-03-12T07:58:17.374Z,2.22
2023-03-12T08:00:45.171Z,3.35
2023-03-12T08:03:13.557Z,2.22
2023-03-12T08:05:41.810Z,2.28
2023-03-12T08:08:09.629Z,2.88
2023-03-12T08:10:37.552Z,4.50
2023-03-12T08:13:05.378Z,2.70
2023-03-12T08:15:33.619Z,2.20
2023-03-12T08:18:01.850Z,2.13
2023-03-12T08:20:29.508Z,3.25
2023-03-12T08:22:57.148Z,4.53
2023-03-12T08:25:24.938Z,2.55
2023-03-12T08:27:53.188Z,2.45
2023-03-12T08:30:21.201Z,2.65
2023-03-12T08:32:48.818Z,1.75
2023-03-12T08:35:16.617Z,3.28
2023-03-12T08:37:44.390Z,4.22
2023-03-12T08:40:15.236Z,2.10
2023-03-12T08:42:44.245Z,2.30
2023-03-12T08:45:12.958Z,2.78
2023-03-12T08:47:41.914Z,2.85
2023-03-12T08:50:14.960Z,3.42
2023-03-12T08:52:43.211Z,2.05
2023-03-12T08:55:12.525Z,1.52
2023-03-12T08:57:40.253Z,1.83
2023-03-12T09:00:11.636Z,2.53
2023-03-12T09:02:39.334Z,1.55
2023-03-12T09:05:07.692Z,1.73
2023-03-12T09:07:35.666Z,1.58
2023-03-12T09:10:03.902Z,1.42
2023-03-12T09:12:31.997Z,0.73
2023-03-12T09:15:04.514Z,1.02
2023-03-12T09:20:00.952Z,1.58
2023-03-12T09:22:30.557Z,1.80
2023-03-12T09:24:58.297Z,2.20
2023-03-12T09:27:25.926Z,1.00
2023-03-12T09:30:00.562Z,1.13
2023-03-12T09:32:30.148Z,1.67
2023-03-12T09:34:58.242Z,3.00
2023-03-12T09:37:26.398Z,1.40
2023-03-12T09:39:54.566Z,1.42
2023-03-12T09:42:47.337Z,1.35
2023-03-12T09:45:21.214Z,0.80
2023-03-12T09:47:52.812Z,1.63
2023-03-12T09:50:31.804Z,3.55
2023-03-12T09:53:11.074Z,3.63
2023-03-12T09:55:42.358Z,0.73
2023-03-12T09:58:22.136Z,0.70
2023-03-12T10:00:50.068Z,0.55
2023-03-12T10:03:44.131Z,0.80
2023-03-12T10:06:20.506Z,3.40
2023-03-12T10:09:11.042Z,2.85
2023-03-12T10:11:47.717Z,0.95
2023-03-12T10:14:39.452Z,0.65
2023-03-12T10:17:43.155Z,0.55
2023-03-12T10:20:47.730Z,0.50
2023-03-12T10:23:50.123Z,0.60
2023-03-12T10:26:25.768Z,2.37
2023-03-12T10:29:02.030Z,0.30
2023-03-12T10:31:38.243Z,3.47
2023-03-12T10:34:17.549Z,1.42
2023-03-12T10:36:47.008Z,1.85
2023-03-12T10:39:17.472Z,2.92
2023-03-12T10:41:46.994Z,3.75
2023-03-12T10:44:21.498Z,3.08
2023-03-12T10:47:00.905Z,5.25
2023-03-12T10:49:35.033Z,1.45
2023-03-12T10:52:07.141Z,1.15
2023-03-12T10:54:38.060Z,0.52
2023-03-12T10:57:06.705Z,0.98
2023-03-12T10:59:37.280Z,0.68
2023-03-12T11:02:24.999Z,0.90
2023-03-12T11:04:53.847Z,1.95
2023-03-12T11:07:30.156Z,2.65
2023-03-12T11:10:37.417Z,1.88
2023-03-12T11:13:27.119Z,1.58
2023-03-12T11:15:56.797Z,1.17
2023-03-12T11:18:32.710Z,0.47
2023-03-12T11:21:09.543Z,1.00
2023-03-12T11:23:40.936Z,0.50
2023-03-12T11:26:17.094Z,0.30
2023-03-12T11:28:49.107Z,3.20
2023-03-12T11:31:36.255Z,1.60
2023-03-12T11:34:08.312Z,1.30
2023-03-12T11:36:59.219Z,2.20
2023-03-12T11:39:37.489Z,1.05
2023-03-12T11:42:17.729Z,2.53
2023-03-12T11:44:56.927Z,0.60
2023-03-12T11:47:33.346Z,4.32
2023-03-12T11:50:22.310Z,3.38
2023-03-12T11:53:08.699Z,3.33
2023-03-12T11:55:45.315Z,0.90
2023-03-12T11:58:24.965Z,1.85
2023-03-12T12:01:00.889Z,4.13
2023-03-12T12:03:46.822Z,1.92
2023-03-12T12:06:36.237Z,9.43
2023-03-12T12:09:13.131Z,5.72
2023-03-12T12:11:46.942Z,3.83
2023-03-12T12:14:59.060Z,3.92
2023-03-12T12:18:20.831Z,3.42
2023-03-12T12:21:10.765Z,1.42
2023-03-12T12:24:03.884Z,3.03
2023-03-12T12:29:51.596Z,5.60
2023-03-12T12:35:26.656Z,1.52
2023-03-12T12:38:10.404Z,3.28
2023-03-12T12:40:42.950Z,5.40
2023-03-12T12:43:33.632Z,4.95
2023-03-12T12:46:06.916Z,3.45
2023-03-12T12:48:43.528Z,1.67
2023-03-12T12:51:13.187Z,4.50
2023-03-12T12:53:54.383Z,6.18
2023-03-12T12:56:50.933Z,3.50
2023-03-12T12:59:27.700Z,2.22
2023-03-12T13:01:57.307Z,5.05
2023-03-12T13:04:32.890Z,3.10
2023-03-12T13:07:11.751Z,2.65
2023-03-12T13:09:47.049Z,1.75
2023-03-12T13:12:55.356Z,2.40
2023-03-12T13:15:29.438Z,3.25
2023-03-12T13:18:00.150Z,3.55
2023-03-12T13:20:55.270Z,3.80
2023-03-12T13:23:41.098Z,2.85
2023-03-12T13:26:17.894Z,4.57
2023-03-12T13:29:06.207Z,6.63
2023-03-12T13:31:41.796Z,5.43
2023-03-12T13:34:19.753Z,5.68
2023-03-12T13:36:51.875Z,2.47
2023-03-12T13:39:32.148Z,2.60
2023-03-12T13:42:23.946Z,6.43
2023-03-12T13:44:53.541Z,3.15
2023-03-12T13:47:30.633Z,4.13
2023-03-12T13:50:06.523Z,2.95
2023-03-12T13:52:40.812Z,4.70
2023-03-12T13:55:14.981Z,4.57
2023-03-12T13:57:50.745Z,3.40
2023-03-12T14:00:40.182Z,2.65
2023-03-12T14:03:27.919Z,3.83
2023-03-12T14:06:14.018Z,10.68
2023-03-12T14:09:15.865Z,3.33
2023-03-12T14:12:05.077Z,7.75
2023-03-12T14:14:41.581Z,7.28
2023-03-12T14:17:24.375Z,4.03
2023-03-12T14:20:12.910Z,3.97
2023-03-12T14:22:44.973Z,7.20
2023-03-12T14:25:33.698Z,4.87
2023-03-12T14:28:03.631Z,4.95
2023-03-12T14:30:55.851Z,5.55
2023-03-12T14:33:26.097Z,4.65
2023-03-12T14:36:16.818Z,3.65
2023-03-12T14:38:47.449Z,7.75
2023-03-12T14:41:34.560Z,5.18
2023-03-12T14:44:27.026Z,5.45
2023-03-12T14:47:12.803Z,20.50
2023-03-12T14:49:46.050Z,5.45
2023-03-12T14:52:20.687Z,35.58
2023-03-12T14:54:58.199Z,5.53
2023-03-12T14:57:26.483Z,9.55
2023-03-12T14:59:59.343Z,11.10
2023-03-12T15:02:30.791Z,10.20
2023-03-12T15:05:02.098Z,15.25
2023-03-12T15:07:34.721Z,19.95
2023-03-12T15:10:07.694Z,7.90
2023-03-12T15:12:37.955Z,31.90
2023-03-12T15:15:09.655Z,15.25
2023-03-12T15:17:38.124Z,8.97
2023-03-12T15:20:09.556Z,17.88
2023-03-12T15:22:38.173Z,5.97
2023-03-12T15:25:23.730Z,6.57
2023-03-12T15:28:26.849Z,17.65
2023-03-12T15:31:18.234Z,18.80
2023-03-12T15:33:59.563Z,4.85
2023-03-12T15:36:29.378Z,8.38
2023-03-12T15:39:14.287Z,5.65
2023-03-12T15:41:49.922Z,9.38
2023-03-12T15:44:24.153Z,4.38
2023-03-12T15:47:17.668Z,6.18
2023-03-12T15:50:04.129Z,8.13
2023-03-12T15:52:36.710Z,7.53
2023-03-12T15:55:23.499Z,10.43
2023-03-12T15:57:55.378Z,4.93
2023-03-12T16:00:31.296Z,3.08
2023-03-12T16:03:07.209Z,16.00
2023-03-12T16:05:40.279Z,14.63
2023-03-12T16:08:26.253Z,7.80
2023-03-12T16:10:56.395Z,10.32
2023-03-12T16:13:32.056Z,6.55
2023-03-12T16:16:02.725Z,5.00
2023-03-12T16:18:31.240Z,4.07
2023-03-12T16:21:00.352Z,3.72
2023-03-12T16:23:28.899Z,8.30
2023-03-12T16:25:58.995Z,10.57
2023-03-12T16:28:27.576Z,4.45
2023-03-12T16:30:55.522Z,7.47
2023-03-12T16:33:25.364Z,10.00
2023-03-12T16:35:54.296Z,7.80
2023-03-12T16:38:22.737Z,10.38
2023-03-12T16:40:53.170Z,5.97
2023-03-12T16:43:24.769Z,7.25
2023-03-12T16:45:55.582Z,137.45
2023-03-12T16:48:24.964Z,32.80
2023-03-12T16:50:56.731Z,23.55
2023-03-12T16:53:27.345Z,43.80
2023-03-12T16:55:58.753Z,12.82
2023-03-12T16:58:28.762Z,32.72
2023-03-12T17:01:00.219Z,18.95
2023-03-12T17:03:37.977Z,27.77
2023-03-12T17:06:08.635Z,28.73
2023-03-12T17:08:37.056Z,22.38
2023-03-12T17:11:21.114Z,33.70
2023-03-12T17:14:00.197Z,50.90
2023-03-12T17:16:28.841Z,50.63
2023-03-12T17:18:57.268Z,41.78
2023-03-12T17:21:26.105Z,42.00
2023-03-12T17:23:55.298Z,45.13
2023-03-12T17:26:25.365Z,21.02
2023-03-12T17:28:54.421Z,19.55
2023-03-12T17:31:25.180Z,22.45
2023-03-12T17:33:53.932Z,23.38
2023-03-12T17:36:26.200Z,32.17
2023-03-12T17:38:55.427Z,34.33
2023-03-12T17:41:27.170Z,35.55
2023-03-12T17:43:59.309Z,35.92
2023-03-12T17:46:28.693Z,27.10
2023-03-12T17:48:57.765Z,33.08
2023-03-12T17:51:26.597Z,31.48
2023-03-12T17:53:55.526Z,34.03
2023-03-12T17:56:24.493Z,30.63
2023-03-12T17:58:54.860Z,16.77
2023-03-12T18:01:22.745Z,15.75
2023-03-12T18:03:51.753Z,16.73
2023-03-12T18:06:20.672Z,21.52
2023-03-12T18:08:49.320Z,24.85
2023-03-12T18:11:17.516Z,39.67
2023-03-12T18:13:48.986Z,66.93
2023-03-12T18:16:18.264Z,43.20
2023-03-12T18:18:47.386Z,95.30
2023-03-12T18:21:17.990Z,74.47
2023-03-12T18:23:48.399Z,58.10
2023-03-12T18:26:17.004Z,43.00
2023-03-12T18:28:45.871Z,43.47
2023-03-12T18:31:16.115Z,43.55
2023-03-12T18:33:47.490Z,37.85
2023-03-12T18:36:21.312Z,26.63
2023-03-12T18:38:50.668Z,17.35
2023-03-12T18:41:20.248Z,39.80
2023-03-12T18:43:49.315Z,23.38
2023-03-12T18:46:19.774Z,19.77
2023-03-12T18:48:53.600Z,22.63
2023-03-12T18:51:22.726Z,37.00
2023-03-12T18:53:51.092Z,36.67
2023-03-12T18:56:20.122Z,23.73
2023-03-12T18:58:49.398Z,21.38
2023-03-12T19:01:18.263Z,21.02
2023-03-12T19:03:50.444Z,19.00
2023-03-12T19:06:19.770Z,19.17
2023-03-12T19:08:48.865Z,53.10
2023-03-12T19:11:18.225Z,72.07
2023-03-12T19:13:53.189Z,78.90
2023-03-12T19:16:22.469Z,90.93
2023-03-12T19:18:52.484Z,74.45
2023-03-12T19:21:24.500Z,71.18
2023-03-12T19:23:53.864Z,120.50
2023-03-12T19:26:24.392Z,137.85
2023-03-12T19:28:53.167Z,155.52
2023-03-12T19:31:21.846Z,142.95
2023-03-12T19:33:52.574Z,103.28
2023-03-12T19:36:21.650Z,85.10
2023-03-12T19:38:50.485Z,71.38
2023-03-12T19:41:19.830Z,70.60
2023-03-12T19:43:49.459Z,49.47
2023-03-12T19:46:20.556Z,29.85
2023-03-12T19:48:51.672Z,21.63
2023-03-12T19:51:21.044Z,24.45
2023-03-12T19:53:49.933Z,18.88
2023-03-12T19:56:20.186Z,16.10
2023-03-12T19:58:49.618Z,11.02
2023-03-12T20:01:20.007Z,9.52
2023-03-12T20:03:48.849Z,6.18
2023-03-12T20:06:18.816Z,5.55
2023-03-12T20:08:49.817Z,10.57
2023-03-12T20:11:18.599Z,15.40
2023-03-12T20:13:48.141Z,21.05
2023-03-12T20:16:18.005Z,25.17
2023-03-12T20:18:48.317Z,27.90
2023-03-12T20:21:17.524Z,25.63
2023-03-12T20:23:45.942Z,20.67
2023-03-12T20:26:15.275Z,23.38
2023-03-12T20:28:44.840Z,27.48
2023-03-12T20:31:17.560Z,25.23
2023-03-12T20:33:46.749Z,32.33
2023-03-12T20:36:15.920Z,29.42
2023-03-12T20:38:44.899Z,31.70
2023-03-12T20:41:15.600Z,33.05
2023-03-12T20:43:45.696Z,32.80
2023-03-12T20:46:14.452Z,34.08
2023-03-12T20:48:43.886Z,36.00
2023-03-12T20:51:12.402Z,33.28
2023-03-12T20:53:42.793Z,33.47
2023-03-12T20:56:11.621Z,25.70
2023-03-12T20:58:40.389Z,29.90
2023-03-12T21:01:10.255Z,14.02
2023-03-12T21:03:38.616Z,15.85
2023-03-12T21:06:07.193Z,11.48
2023-03-12T21:08:35.863Z,6.00
2023-03-12T21:11:12.685Z,5.65
2023-03-12T21:13:42.981Z,6.75
2023-03-12T21:16:12.602Z,9.85
2023-03-12T21:18:40.536Z,11.75
2023-03-12T21:21:09.685Z,11.23
2023-03-12T21:23:38.963Z,11.13
2023-03-12T21:26:09.485Z,10.90
2023-03-12T21:28:37.864Z,10.80
2023-03-12T21:31:15.388Z,11.25
2023-03-12T21:33:45.121Z,11.60
2023-03-12T21:36:14.464Z,15.00
2023-03-12T21:38:43.369Z,14.57
2023-03-12T21:41:16.832Z,12.93
2023-03-12T21:43:45.545Z,10.20
2023-03-12T21:46:26.859Z,8.90
2023-03-12T21:48:54.948Z,12.65
2023-03-12T21:51:26.025Z,32.80
2023-03-12T21:53:55.377Z,53.90
2023-03-12T21:56:26.511Z,47.40
2023-03-12T21:58:59.772Z,25.05
2023-03-12T22:01:27.949Z,21.90
2023-03-12T22:03:55.834Z,16.40
2023-03-12T22:06:23.579Z,17.63
2023-03-12T22:08:52.462Z,22.52
2023-03-12T22:11:20.182Z,21.15
2023-03-12T22:13:48.749Z,16.20
2023-03-12T22:16:17.053Z,14.40
2023-03-12T22:18:46.730Z,16.35
2023-03-12T22:21:25.215Z,13.05
2023-03-12T22:23:57.622Z,14.70
2023-03-12T22:26:25.822Z,8.35
2023-03-12T22:29:02.178Z,9.00
2023-03-12T22:31:30.786Z,11.20
2023-03-12T22:33:58.591Z,7.22
2023-03-12T22:36:26.679Z,6.95
2023-03-12T22:38:54.285Z,7.35
2023-03-12T22:44:18.095Z,6.57
2023-03-12T22:46:45.859Z,8.98
2023-03-12T22:49:15.285Z,10.82
2023-03-12T22:51:42.959Z,10.02
2023-03-12T22:54:10.551Z,9.13
2023-03-12T22:56:38.278Z,11.13
2023-03-12T22:59:06.002Z,12.88
2023-03-12T23:01:33.797Z,16.15
2023-03-12T23:04:04.079Z,17.27
2023-03-12T23:06:32.187Z,14.25
2023-03-12T23:08:59.925Z,23.48
2023-03-12T23:11:29.642Z,22.70
2023-03-12T23:13:57.363Z,26.90
2023-03-12T23:16:26.461Z,40.33
2023-03-12T23:18:55.354Z,27.05
2023-03-12T23:21:24.285Z,27.70
2023-03-12T23:23:52.000Z,21.02
2023-03-12T23:26:26.719Z,23.60
2023-03-12T23:28:58.899Z,12.07
2023-03-12T23:31:28.549Z,15.05
2023-03-12T23:33:57.364Z,12.02
2023-03-12T23:36:25.268Z,12.65
2023-03-12T23:38:53.004Z,8.93
2023-03-12T23:41:26.141Z,12.02
2023-03-12T23:43:54.017Z,11.32
2023-03-12T23:46:22.061Z,13.40
2023-03-12T23:48:50.635Z,18.17
2023-03-12T23:51:21.069Z,15.90
2023-03-12T23:53:51.052Z,15.05
2023-03-12T23:56:21.956Z,15.02
2023-03-12T23:58:50.815Z,15.45
